sensor_id;sensor_type;location;lat;lon;timestamp;P1;durP1;ratioP1;P2;durP2;ratioP2
9370;SDS011;4725;48.384;8.984;2022-09-21T00:01:25;5.70;;;2.10;;
9370;SDS011;4725;48.384;8.984;2022-09-21T00:03:54;5.53;;;2.00;;
9370;SDS011;4725;48.384;8.984;2022-09-21T00:06:24;4.70;;;1.87;;
9370;SDS011;4725;48.384;8.984;2022-09-21T00:08:52;4.00;;;2.47;;
9370;SDS011;4725;48.384;8.984;2022-09-21T00:11:20;3.30;;;2.00;;
9370;SDS011;4725;48.384;8.984;2022-09-21T00:13:52;2.90;;;2.33;;
9370;SDS011;4725;48.384;8.984;2022-09-21T00:16:20;4.97;;;2.50;;
9370;SDS011;4725;48.384;8.984;2022-09-21T00:18:48;4.67;;;2.17;;
9370;SDS011;4725;48.384;8.984;2022-09-21T00:21:15;3.97;;;2.30;;
9370;SDS011;4725;48.384;8.984;2022-09-21T00:23:43;4.40;;;2.40;;
9370;SDS011;4725;48.384;8.984;2022-09-21T00:26:11;6.87;;;2.93;;
9370;SDS011;4725;48.384;8.984;2022-09-21T00:28:40;9.13;;;2.37;;
9370;SDS011;4725;48.384;8.984;2022-09-21T00:31:10;2.50;;;2.30;;
9370;SDS011;4725;48.384;8.984;2022-09-21T00:33:38;3.20;;;2.10;;
9370;SDS011;4725;48.384;8.984;2022-09-21T00:36:08;4.23;;;2.20;;
9370;SDS011;4725;48.384;8.984;2022-09-21T00:38:36;7.47;;;2.13;;
9370;SDS011;4725;48.384;8.984;2022-09-21T00:41:04;3.77;;;1.97;;
9370;SDS011;4725;48.384;8.984;2022-09-21T00:43:32;4.20;;;2.30;;
9370;SDS011;4725;48.384;8.984;2022-09-21T00:46:02;5.90;;;2.20;;
9370;SDS011;4725;48.384;8.984;2022-09-21T00:48:33;6.67;;;2.37;;
9370;SDS011;4725;48.384;8.984;2022-09-21T00:51:02;4.00;;;2.23;;
9370;SDS011;4725;48.384;8.984;2022-09-21T00:53:33;3.83;;;2.23;;
9370;SDS011;4725;48.384;8.984;2022-09-21T00:56:01;4.67;;;2.47;;
9370;SDS011;4725;48.384;8.984;2022-09-21T00:58:30;3.27;;;1.90;;
9370;SDS011;4725;48.384;8.984;2022-09-21T01:01:04;3.40;;;2.10;;
9370;SDS011;4725;48.384;8.984;2022-09-21T01:03:33;3.90;;;1.80;;
9370;SDS011;4725;48.384;8.984;2022-09-21T01:06:00;3.70;;;2.30;;
9370;SDS011;4725;48.384;8.984;2022-09-21T01:08:27;4.57;;;2.17;;
9370;SDS011;4725;48.384;8.984;2022-09-21T01:11:00;3.53;;;2.20;;
9370;SDS011;4725;48.384;8.984;2022-09-21T01:13:46;2.33;;;2.13;;
9370;SDS011;4725;48.384;8.984;2022-09-21T01:16:25;3.17;;;2.00;;
9370;SDS011;4725;48.384;8.984;2022-09-21T01:19:04;4.73;;;2.27;;
9370;SDS011;4725;48.384;8.984;2022-09-21T01:21:50;2.63;;;1.90;;
9370;SDS011;4725;48.384;8.984;2022-09-21T01:24:35;2.60;;;1.90;;
9370;SDS011;4725;48.384;8.984;2022-09-21T01:30:20;3.03;;;2.40;;
9370;SDS011;4725;48.384;8.984;2022-09-21T01:32:50;3.90;;;2.37;;
9370;SDS011;4725;48.384;8.984;2022-09-21T01:35:22;2.37;;;2.10;;
9370;SDS011;4725;48.384;8.984;2022-09-21T01:37:54;3.77;;;2.30;;
9370;SDS011;4725;48.384;8.984;2022-09-21T01:40:25;2.63;;;2.20;;
9370;SDS011;4725;48.384;8.984;2022-09-21T01:42:57;4.33;;;2.90;;
9370;SDS011;4725;48.384;8.984;2022-09-21T01:45:28;5.77;;;2.90;;
9370;SDS011;4725;48.384;8.984;2022-09-21T01:47:58;5.10;;;2.97;;
9370;SDS011;4725;48.384;8.984;2022-09-21T01:50:28;3.97;;;2.73;;
9370;SDS011;4725;48.384;8.984;2022-09-21T01:52:59;6.77;;;3.97;;
9370;SDS011;4725;48.384;8.984;2022-09-21T01:55:31;3.73;;;3.40;;
9370;SDS011;4725;48.384;8.984;2022-09-21T01:58:06;4.83;;;3.50;;
9370;SDS011;4725;48.384;8.984;2022-09-21T02:00:41;7.33;;;3.50;;
9370;SDS011;4725;48.384;8.984;2022-09-21T02:03:13;6.90;;;3.63;;
9370;SDS011;4725;48.384;8.984;2022-09-21T02:05:45;7.07;;;3.70;;
9370;SDS011;4725;48.384;8.984;2022-09-21T02:08:12;5.93;;;3.43;;
9370;SDS011;4725;48.384;8.984;2022-09-21T02:10:41;4.00;;;3.30;;
9370;SDS011;4725;48.384;8.984;2022-09-21T02:13:11;5.80;;;3.93;;
9370;SDS011;4725;48.384;8.984;2022-09-21T02:15:46;4.20;;;3.43;;
9370;SDS011;4725;48.384;8.984;2022-09-21T02:18:29;6.97;;;2.97;;
9370;SDS011;4725;48.384;8.984;2022-09-21T02:21:07;3.60;;;3.03;;
9370;SDS011;4725;48.384;8.984;2022-09-21T02:23:42;5.70;;;3.70;;
9370;SDS011;4725;48.384;8.984;2022-09-21T02:26:16;6.27;;;3.20;;
9370;SDS011;4725;48.384;8.984;2022-09-21T02:28:48;5.53;;;3.47;;
9370;SDS011;4725;48.384;8.984;2022-09-21T02:31:25;3.23;;;2.93;;
9370;SDS011;4725;48.384;8.984;2022-09-21T02:33:58;3.70;;;3.30;;
9370;SDS011;4725;48.384;8.984;2022-09-21T02:36:30;4.30;;;3.20;;
9370;SDS011;4725;48.384;8.984;2022-09-21T02:39:08;3.83;;;3.37;;
9370;SDS011;4725;48.384;8.984;2022-09-21T02:41:37;5.77;;;3.10;;
9370;SDS011;4725;48.384;8.984;2022-09-21T02:44:10;6.30;;;3.40;;
9370;SDS011;4725;48.384;8.984;2022-09-21T02:46:45;6.10;;;3.93;;
9370;SDS011;4725;48.384;8.984;2022-09-21T02:49:18;5.03;;;3.67;;
9370;SDS011;4725;48.384;8.984;2022-09-21T02:51:48;6.10;;;3.80;;
9370;SDS011;4725;48.384;8.984;2022-09-21T02:54:18;4.80;;;3.87;;
9370;SDS011;4725;48.384;8.984;2022-09-21T02:56:47;4.50;;;3.30;;
9370;SDS011;4725;48.384;8.984;2022-09-21T02:59:15;6.57;;;3.30;;
9370;SDS011;4725;48.384;8.984;2022-09-21T03:01:44;4.27;;;3.10;;
9370;SDS011;4725;48.384;8.984;2022-09-21T03:04:12;5.03;;;2.73;;
9370;SDS011;4725;48.384;8.984;2022-09-21T03:06:38;8.50;;;3.00;;
9370;SDS011;4725;48.384;8.984;2022-09-21T03:09:06;3.60;;;3.00;;
9370;SDS011;4725;48.384;8.984;2022-09-21T03:11:33;5.83;;;3.20;;
9370;SDS011;4725;48.384;8.984;2022-09-21T03:14:01;6.60;;;3.17;;
9370;SDS011;4725;48.384;8.984;2022-09-21T03:16:32;3.87;;;2.63;;
9370;SDS011;4725;48.384;8.984;2022-09-21T03:19:00;3.53;;;2.60;;
9370;SDS011;4725;48.384;8.984;2022-09-21T03:21:27;4.00;;;2.37;;
9370;SDS011;4725;48.384;8.984;2022-09-21T03:23:54;2.87;;;2.43;;
9370;SDS011;4725;48.384;8.984;2022-09-21T03:26:21;11.00;;;3.20;;
9370;SDS011;4725;48.384;8.984;2022-09-21T03:28:49;3.93;;;3.10;;
9370;SDS011;4725;48.384;8.984;2022-09-21T03:31:17;4.23;;;2.80;;
9370;SDS011;4725;48.384;8.984;2022-09-21T03:33:44;4.47;;;2.60;;
9370;SDS011;4725;48.384;8.984;2022-09-21T03:36:13;2.80;;;2.20;;
9370;SDS011;4725;48.384;8.984;2022-09-21T03:38:40;4.13;;;3.23;;
9370;SDS011;4725;48.384;8.984;2022-09-21T03:41:08;4.50;;;2.80;;
9370;SDS011;4725;48.384;8.984;2022-09-21T03:43:35;4.13;;;2.50;;
9370;SDS011;4725;48.384;8.984;2022-09-21T03:46:02;2.97;;;2.47;;
9370;SDS011;4725;48.384;8.984;2022-09-21T03:48:29;5.67;;;3.33;;
9370;SDS011;4725;48.384;8.984;2022-09-21T03:50:56;4.93;;;2.50;;
9370;SDS011;4725;48.384;8.984;2022-09-21T03:53:25;6.00;;;2.87;;
9370;SDS011;4725;48.384;8.984;2022-09-21T03:55:51;3.57;;;2.27;;
9370;SDS011;4725;48.384;8.984;2022-09-21T03:58:18;4.07;;;2.30;;
9370;SDS011;4725;48.384;8.984;2022-09-21T04:00:46;6.90;;;2.27;;
9370;SDS011;4725;48.384;8.984;2022-09-21T04:03:13;2.67;;;2.07;;
9370;SDS011;4725;48.384;8.984;2022-09-21T04:05:40;2.40;;;2.03;;
9370;SDS011;4725;48.384;8.984;2022-09-21T04:08:07;4.03;;;2.20;;
9370;SDS011;4725;48.384;8.984;2022-09-21T04:10:35;3.27;;;2.30;;
9370;SDS011;4725;48.384;8.984;2022-09-21T04:13:06;4.00;;;2.67;;
9370;SDS011;4725;48.384;8.984;2022-09-21T04:15:33;3.57;;;2.60;;
9370;SDS011;4725;48.384;8.984;2022-09-21T04:18:00;6.20;;;2.50;;
9370;SDS011;4725;48.384;8.984;2022-09-21T04:20:27;4.77;;;2.70;;
9370;SDS011;4725;48.384;8.984;2022-09-21T04:22:55;4.50;;;2.70;;
9370;SDS011;4725;48.384;8.984;2022-09-21T04:25:22;4.23;;;2.83;;
9370;SDS011;4725;48.384;8.984;2022-09-21T04:27:50;2.90;;;2.53;;
9370;SDS011;4725;48.384;8.984;2022-09-21T04:30:17;4.00;;;2.50;;
9370;SDS011;4725;48.384;8.984;2022-09-21T04:32:44;5.17;;;2.20;;
9370;SDS011;4725;48.384;8.984;2022-09-21T04:35:11;3.13;;;2.60;;
9370;SDS011;4725;48.384;8.984;2022-09-21T04:37:38;4.33;;;2.67;;
9370;SDS011;4725;48.384;8.984;2022-09-21T04:40:06;5.63;;;2.87;;
9370;SDS011;4725;48.384;8.984;2022-09-21T04:42:33;2.77;;;2.30;;
9370;SDS011;4725;48.384;8.984;2022-09-21T04:45:02;5.37;;;3.10;;
9370;SDS011;4725;48.384;8.984;2022-09-21T04:47:29;6.10;;;2.93;;
9370;SDS011;4725;48.384;8.984;2022-09-21T04:49:56;3.33;;;2.53;;
9370;SDS011;4725;48.384;8.984;2022-09-21T04:52:23;4.27;;;2.53;;
9370;SDS011;4725;48.384;8.984;2022-09-21T04:54:50;6.43;;;3.20;;
9370;SDS011;4725;48.384;8.984;2022-09-21T04:57:17;4.07;;;3.30;;
9370;SDS011;4725;48.384;8.984;2022-09-21T04:59:44;4.33;;;3.20;;
9370;SDS011;4725;48.384;8.984;2022-09-21T05:02:12;4.70;;;3.67;;
9370;SDS011;4725;48.384;8.984;2022-09-21T05:04:39;4.73;;;2.63;;
9370;SDS011;4725;48.384;8.984;2022-09-21T05:07:06;7.53;;;3.10;;
9370;SDS011;4725;48.384;8.984;2022-09-21T05:09:32;5.10;;;3.23;;
9370;SDS011;4725;48.384;8.984;2022-09-21T05:12:17;3.83;;;3.00;;
9370;SDS011;4725;48.384;8.984;2022-09-21T05:14:43;5.90;;;4.10;;
9370;SDS011;4725;48.384;8.984;2022-09-21T05:17:12;4.27;;;3.73;;
9370;SDS011;4725;48.384;8.984;2022-09-21T05:19:39;5.33;;;3.43;;
9370;SDS011;4725;48.384;8.984;2022-09-21T05:22:06;5.80;;;3.43;;
9370;SDS011;4725;48.384;8.984;2022-09-21T05:24:33;4.77;;;3.93;;
9370;SDS011;4725;48.384;8.984;2022-09-21T05:27:00;5.33;;;3.20;;
9370;SDS011;4725;48.384;8.984;2022-09-21T05:29:27;6.70;;;4.67;;
9370;SDS011;4725;48.384;8.984;2022-09-21T05:31:56;8.10;;;3.87;;
9370;SDS011;4725;48.384;8.984;2022-09-21T05:34:39;9.50;;;3.40;;
9370;SDS011;4725;48.384;8.984;2022-09-21T05:37:19;7.50;;;4.67;;
9370;SDS011;4725;48.384;8.984;2022-09-21T05:40:05;9.10;;;4.63;;
9370;SDS011;4725;48.384;8.984;2022-09-21T05:42:35;8.07;;;4.10;;
9370;SDS011;4725;48.384;8.984;2022-09-21T05:45:02;5.17;;;4.30;;
9370;SDS011;4725;48.384;8.984;2022-09-21T05:47:33;5.07;;;3.93;;
9370;SDS011;4725;48.384;8.984;2022-09-21T05:50:12;5.10;;;3.87;;
9370;SDS011;4725;48.384;8.984;2022-09-21T05:52:49;4.90;;;3.70;;
9370;SDS011;4725;48.384;8.984;2022-09-21T05:55:28;6.33;;;4.50;;
9370;SDS011;4725;48.384;8.984;2022-09-21T05:58:04;4.70;;;3.40;;
9370;SDS011;4725;48.384;8.984;2022-09-21T06:00:37;5.30;;;3.70;;
9370;SDS011;4725;48.384;8.984;2022-09-21T06:03:26;5.90;;;3.77;;
9370;SDS011;4725;48.384;8.984;2022-09-21T06:05:55;6.03;;;2.90;;
9370;SDS011;4725;48.384;8.984;2022-09-21T06:08:23;5.23;;;2.77;;
9370;SDS011;4725;48.384;8.984;2022-09-21T06:10:51;5.97;;;3.43;;
9370;SDS011;4725;48.384;8.984;2022-09-21T06:13:18;4.90;;;3.47;;
9370;SDS011;4725;48.384;8.984;2022-09-21T06:15:45;3.60;;;2.87;;
9370;SDS011;4725;48.384;8.984;2022-09-21T06:18:12;4.87;;;2.57;;
9370;SDS011;4725;48.384;8.984;2022-09-21T06:20:39;3.60;;;3.20;;
9370;SDS011;4725;48.384;8.984;2022-09-21T06:23:08;3.73;;;3.40;;
9370;SDS011;4725;48.384;8.984;2022-09-21T06:25:36;5.67;;;3.30;;
9370;SDS011;4725;48.384;8.984;2022-09-21T06:28:03;5.20;;;2.80;;
9370;SDS011;4725;48.384;8.984;2022-09-21T06:30:31;5.60;;;3.43;;
9370;SDS011;4725;48.384;8.984;2022-09-21T06:32:59;2.90;;;2.60;;
9370;SDS011;4725;48.384;8.984;2022-09-21T06:35:26;4.63;;;2.90;;
9370;SDS011;4725;48.384;8.984;2022-09-21T06:37:56;4.93;;;2.90;;
9370;SDS011;4725;48.384;8.984;2022-09-21T06:40:25;10.33;;;4.07;;
9370;SDS011;4725;48.384;8.984;2022-09-21T06:42:56;4.97;;;4.37;;
9370;SDS011;4725;48.384;8.984;2022-09-21T06:45:23;8.73;;;5.33;;
9370;SDS011;4725;48.384;8.984;2022-09-21T06:47:50;6.17;;;5.03;;
9370;SDS011;4725;48.384;8.984;2022-09-21T06:50:17;6.50;;;5.40;;
9370;SDS011;4725;48.384;8.984;2022-09-21T06:52:45;10.27;;;6.13;;
9370;SDS011;4725;48.384;8.984;2022-09-21T06:55:14;6.67;;;4.97;;
9370;SDS011;4725;48.384;8.984;2022-09-21T06:57:42;10.07;;;6.23;;
9370;SDS011;4725;48.384;8.984;2022-09-21T07:00:10;9.33;;;6.13;;
9370;SDS011;4725;48.384;8.984;2022-09-21T07:02:40;8.90;;;5.97;;
9370;SDS011;4725;48.384;8.984;2022-09-21T07:05:08;9.40;;;6.20;;
9370;SDS011;4725;48.384;8.984;2022-09-21T07:07:35;8.93;;;5.60;;
9370;SDS011;4725;48.384;8.984;2022-09-21T07:10:02;8.33;;;5.67;;
9370;SDS011;4725;48.384;8.984;2022-09-21T07:12:32;10.13;;;5.60;;
9370;SDS011;4725;48.384;8.984;2022-09-21T07:15:00;5.57;;;4.53;;
9370;SDS011;4725;48.384;8.984;2022-09-21T07:17:30;6.50;;;4.93;;
9370;SDS011;4725;48.384;8.984;2022-09-21T07:19:57;5.73;;;4.17;;
9370;SDS011;4725;48.384;8.984;2022-09-21T07:22:24;5.97;;;4.23;;
9370;SDS011;4725;48.384;8.984;2022-09-21T07:24:51;6.50;;;3.83;;
9370;SDS011;4725;48.384;8.984;2022-09-21T07:27:18;5.67;;;4.10;;
9370;SDS011;4725;48.384;8.984;2022-09-21T07:29:45;5.77;;;3.73;;
9370;SDS011;4725;48.384;8.984;2022-09-21T07:32:14;4.30;;;3.90;;
9370;SDS011;4725;48.384;8.984;2022-09-21T07:34:41;5.37;;;3.97;;
9370;SDS011;4725;48.384;8.984;2022-09-21T07:37:07;14.43;;;3.30;;
9370;SDS011;4725;48.384;8.984;2022-09-21T07:39:34;4.53;;;2.60;;
9370;SDS011;4725;48.384;8.984;2022-09-21T07:42:03;3.93;;;2.87;;
9370;SDS011;4725;48.384;8.984;2022-09-21T07:44:30;4.43;;;3.07;;
9370;SDS011;4725;48.384;8.984;2022-09-21T07:46:57;5.10;;;3.00;;
9370;SDS011;4725;48.384;8.984;2022-09-21T07:49:25;3.23;;;2.80;;
9370;SDS011;4725;48.384;8.984;2022-09-21T07:51:52;5.10;;;2.70;;
9370;SDS011;4725;48.384;8.984;2022-09-21T07:54:19;6.40;;;2.20;;
9370;SDS011;4725;48.384;8.984;2022-09-21T07:56:46;2.40;;;2.20;;
9370;SDS011;4725;48.384;8.984;2022-09-21T07:59:33;2.97;;;2.67;;
9370;SDS011;4725;48.384;8.984;2022-09-21T08:01:59;5.23;;;3.30;;
9370;SDS011;4725;48.384;8.984;2022-09-21T08:04:27;5.70;;;3.40;;
9370;SDS011;4725;48.384;8.984;2022-09-21T08:06:54;4.50;;;2.70;;
9370;SDS011;4725;48.384;8.984;2022-09-21T08:09:21;5.27;;;2.73;;
9370;SDS011;4725;48.384;8.984;2022-09-21T08:11:48;3.77;;;2.63;;
9370;SDS011;4725;48.384;8.984;2022-09-21T08:14:16;8.53;;;2.43;;
9370;SDS011;4725;48.384;8.984;2022-09-21T08:16:44;2.83;;;2.33;;
9370;SDS011;4725;48.384;8.984;2022-09-21T08:19:12;5.90;;;2.60;;
9370;SDS011;4725;48.384;8.984;2022-09-21T08:21:40;5.03;;;2.87;;
9370;SDS011;4725;48.384;8.984;2022-09-21T08:24:07;4.67;;;2.50;;
9370;SDS011;4725;48.384;8.984;2022-09-21T08:26:34;3.03;;;2.27;;
9370;SDS011;4725;48.384;8.984;2022-09-21T08:29:02;5.53;;;1.70;;
9370;SDS011;4725;48.384;8.984;2022-09-21T08:31:30;5.97;;;2.30;;
9370;SDS011;4725;48.384;8.984;2022-09-21T08:33:57;5.90;;;1.97;;
9370;SDS011;4725;48.384;8.984;2022-09-21T08:36:24;3.27;;;2.70;;
9370;SDS011;4725;48.384;8.984;2022-09-21T08:38:53;4.13;;;2.80;;
9370;SDS011;4725;48.384;8.984;2022-09-21T08:41:21;5.33;;;2.93;;
9370;SDS011;4725;48.384;8.984;2022-09-21T08:43:51;3.07;;;2.47;;
9370;SDS011;4725;48.384;8.984;2022-09-21T08:46:21;3.17;;;2.60;;
9370;SDS011;4725;48.384;8.984;2022-09-21T08:48:53;3.03;;;2.20;;
9370;SDS011;4725;48.384;8.984;2022-09-21T08:51:25;2.93;;;2.27;;
9370;SDS011;4725;48.384;8.984;2022-09-21T08:53:56;5.67;;;2.97;;
9370;SDS011;4725;48.384;8.984;2022-09-21T08:56:26;5.27;;;2.63;;
9370;SDS011;4725;48.384;8.984;2022-09-21T08:58:53;5.20;;;3.33;;
9370;SDS011;4725;48.384;8.984;2022-09-21T09:01:27;3.80;;;2.83;;
9370;SDS011;4725;48.384;8.984;2022-09-21T09:04:03;4.80;;;2.60;;
9370;SDS011;4725;48.384;8.984;2022-09-21T09:06:50;3.03;;;2.40;;
9370;SDS011;4725;48.384;8.984;2022-09-21T09:12:26;3.03;;;2.67;;
9370;SDS011;4725;48.384;8.984;2022-09-21T09:15:09;5.03;;;2.90;;
9370;SDS011;4725;48.384;8.984;2022-09-21T09:17:51;3.07;;;2.43;;
9370;SDS011;4725;48.384;8.984;2022-09-21T09:20:26;5.47;;;2.90;;
9370;SDS011;4725;48.384;8.984;2022-09-21T09:23:01;2.77;;;2.30;;
9370;SDS011;4725;48.384;8.984;2022-09-21T09:25:33;4.10;;;2.27;;
9370;SDS011;4725;48.384;8.984;2022-09-21T09:28:07;3.57;;;2.67;;
9370;SDS011;4725;48.384;8.984;2022-09-21T09:30:43;4.30;;;2.70;;
9370;SDS011;4725;48.384;8.984;2022-09-21T09:33:12;4.57;;;2.77;;
9370;SDS011;4725;48.384;8.984;2022-09-21T09:35:45;3.67;;;2.90;;
9370;SDS011;4725;48.384;8.984;2022-09-21T09:38:16;5.57;;;2.20;;
9370;SDS011;4725;48.384;8.984;2022-09-21T09:40:57;4.57;;;2.70;;
9370;SDS011;4725;48.384;8.984;2022-09-21T09:43:43;4.30;;;2.87;;
9370;SDS011;4725;48.384;8.984;2022-09-21T09:46:19;5.60;;;2.70;;
9370;SDS011;4725;48.384;8.984;2022-09-21T09:49:09;3.60;;;2.30;;
9370;SDS011;4725;48.384;8.984;2022-09-21T09:51:43;2.53;;;1.90;;
9370;SDS011;4725;48.384;8.984;2022-09-21T09:54:13;4.03;;;2.07;;
9370;SDS011;4725;48.384;8.984;2022-09-21T09:56:42;4.15;;;2.78;;
9370;SDS011;4725;48.384;8.984;2022-09-21T09:59:11;3.10;;;2.55;;
9370;SDS011;4725;48.384;8.984;2022-09-21T10:01:45;3.75;;;2.80;;
9370;SDS011;4725;48.384;8.984;2022-09-21T10:04:23;4.32;;;2.80;;
9370;SDS011;4725;48.384;8.984;2022-09-21T10:06:50;4.43;;;3.45;;
9370;SDS011;4725;48.384;8.984;2022-09-21T10:09:17;2.42;;;2.22;;
9370;SDS011;4725;48.384;8.984;2022-09-21T10:11:49;4.35;;;2.60;;
9370;SDS011;4725;48.384;8.984;2022-09-21T10:14:17;6.55;;;2.47;;
9370;SDS011;4725;48.384;8.984;2022-09-21T10:16:47;3.17;;;2.03;;
9370;SDS011;4725;48.384;8.984;2022-09-21T10:19:17;3.95;;;2.58;;
9370;SDS011;4725;48.384;8.984;2022-09-21T10:21:54;6.10;;;1.52;;
9370;SDS011;4725;48.384;8.984;2022-09-21T10:24:23;2.63;;;2.10;;
9370;SDS011;4725;48.384;8.984;2022-09-21T10:26:54;3.28;;;2.22;;
9370;SDS011;4725;48.384;8.984;2022-09-21T10:29:30;5.20;;;2.38;;
9370;SDS011;4725;48.384;8.984;2022-09-21T10:32:03;2.78;;;1.90;;
9370;SDS011;4725;48.384;8.984;2022-09-21T10:37:28;2.72;;;1.88;;
9370;SDS011;4725;48.384;8.984;2022-09-21T10:39:58;2.20;;;1.75;;
9370;SDS011;4725;48.384;8.984;2022-09-21T10:42:27;2.88;;;2.00;;
9370;SDS011;4725;48.384;8.984;2022-09-21T10:45:04;8.30;;;1.80;;
9370;SDS011;4725;48.384;8.984;2022-09-21T10:47:39;3.45;;;1.73;;
9370;SDS011;4725;48.384;8.984;2022-09-21T10:50:19;4.10;;;1.80;;
9370;SDS011;4725;48.384;8.984;2022-09-21T10:52:49;2.15;;;1.40;;
9370;SDS011;4725;48.384;8.984;2022-09-21T10:55:21;2.40;;;1.38;;
9370;SDS011;4725;48.384;8.984;2022-09-21T10:57:51;3.85;;;2.08;;
9370;SDS011;4725;48.384;8.984;2022-09-21T11:00:29;1.50;;;1.38;;
9370;SDS011;4725;48.384;8.984;2022-09-21T11:03:00;1.70;;;1.40;;
9370;SDS011;4725;48.384;8.984;2022-09-21T11:05:52;2.28;;;1.63;;
9370;SDS011;4725;48.384;8.984;2022-09-21T11:08:22;4.47;;;2.03;;
9370;SDS011;4725;48.384;8.984;2022-09-21T11:11:00;5.50;;;1.50;;
9370;SDS011;4725;48.384;8.984;2022-09-21T11:13:35;3.35;;;1.70;;
9370;SDS011;4725;48.384;8.984;2022-09-21T11:16:09;2.72;;;1.20;;
9370;SDS011;4725;48.384;8.984;2022-09-21T11:18:43;4.13;;;1.85;;
9370;SDS011;4725;48.384;8.984;2022-09-21T11:21:15;2.13;;;1.60;;
9370;SDS011;4725;48.384;8.984;2022-09-21T11:24:01;2.15;;;1.40;;
9370;SDS011;4725;48.384;8.984;2022-09-21T11:26:37;2.88;;;1.90;;
9370;SDS011;4725;48.384;8.984;2022-09-21T11:29:13;3.25;;;1.40;;
9370;SDS011;4725;48.384;8.984;2022-09-21T11:31:47;4.38;;;1.73;;
9370;SDS011;4725;48.384;8.984;2022-09-21T11:34:32;3.22;;;1.40;;
9370;SDS011;4725;48.384;8.984;2022-09-21T11:37:12;7.88;;;2.10;;
9370;SDS011;4725;48.384;8.984;2022-09-21T11:39:54;3.00;;;1.52;;
9370;SDS011;4725;48.384;8.984;2022-09-21T11:42:46;1.85;;;1.60;;
9370;SDS011;4725;48.384;8.984;2022-09-21T11:45:28;2.45;;;1.63;;
9370;SDS011;4725;48.384;8.984;2022-09-21T11:48:14;2.38;;;1.38;;
9370;SDS011;4725;48.384;8.984;2022-09-21T11:50:54;5.65;;;1.40;;
9370;SDS011;4725;48.384;8.984;2022-09-21T11:53:33;2.03;;;1.33;;
9370;SDS011;4725;48.384;8.984;2022-09-21T11:56:21;2.00;;;1.02;;
9370;SDS011;4725;48.384;8.984;2022-09-21T12:02:18;1.98;;;1.40;;
9370;SDS011;4725;48.384;8.984;2022-09-21T12:04:56;3.17;;;1.50;;
9370;SDS011;4725;48.384;8.984;2022-09-21T12:07:35;2.42;;;1.20;;
9370;SDS011;4725;48.384;8.984;2022-09-21T12:10:16;1.55;;;1.33;;
9370;SDS011;4725;48.384;8.984;2022-09-21T12:13:05;1.70;;;1.48;;
9370;SDS011;4725;48.384;8.984;2022-09-21T12:15:37;5.00;;;1.50;;
9370;SDS011;4725;48.384;8.984;2022-09-21T12:18:11;1.10;;;1.00;;
9370;SDS011;4725;48.384;8.984;2022-09-21T12:20:44;1.33;;;1.23;;
9370;SDS011;4725;48.384;8.984;2022-09-21T12:23:16;1.65;;;1.20;;
9370;SDS011;4725;48.384;8.984;2022-09-21T12:25:46;2.40;;;1.58;;
9370;SDS011;4725;48.384;8.984;2022-09-21T12:28:17;3.28;;;1.13;;
9370;SDS011;4725;48.384;8.984;2022-09-21T12:30:49;1.58;;;1.10;;
9370;SDS011;4725;48.384;8.984;2022-09-21T12:33:24;2.20;;;1.33;;
9370;SDS011;4725;48.384;8.984;2022-09-21T12:35:59;1.13;;;1.08;;
9370;SDS011;4725;48.384;8.984;2022-09-21T12:38:34;1.85;;;1.08;;
9370;SDS011;4725;48.384;8.984;2022-09-21T12:41:05;3.10;;;1.35;;
9370;SDS011;4725;48.384;8.984;2022-09-21T12:43:41;4.95;;;1.27;;
9370;SDS011;4725;48.384;8.984;2022-09-21T12:46:12;1.80;;;1.30;;
9370;SDS011;4725;48.384;8.984;2022-09-21T12:48:46;2.25;;;1.38;;
9370;SDS011;4725;48.384;8.984;2022-09-21T12:51:15;1.42;;;1.10;;
9370;SDS011;4725;48.384;8.984;2022-09-21T12:53:47;1.10;;;1.00;;
9370;SDS011;4725;48.384;8.984;2022-09-21T12:56:19;1.30;;;1.20;;
9370;SDS011;4725;48.384;8.984;2022-09-21T12:59:10;1.20;;;1.13;;
9370;SDS011;4725;48.384;8.984;2022-09-21T13:01:44;2.10;;;1.10;;
9370;SDS011;4725;48.384;8.984;2022-09-21T13:04:22;3.50;;;0.98;;
9370;SDS011;4725;48.384;8.984;2022-09-21T13:07:14;2.42;;;1.13;;
9370;SDS011;4725;48.384;8.984;2022-09-21T13:09:57;3.28;;;1.15;;
9370;SDS011;4725;48.384;8.984;2022-09-21T13:12:26;2.05;;;1.10;;
9370;SDS011;4725;48.384;8.984;2022-09-21T13:15:00;1.20;;;1.02;;
9370;SDS011;4725;48.384;8.984;2022-09-21T13:17:30;3.97;;;1.00;;
9370;SDS011;4725;48.384;8.984;2022-09-21T13:20:00;1.23;;;1.00;;
9370;SDS011;4725;48.384;8.984;2022-09-21T13:22:30;3.70;;;0.90;;
9370;SDS011;4725;48.384;8.984;2022-09-21T13:25:00;1.63;;;1.00;;
9370;SDS011;4725;48.384;8.984;2022-09-21T13:30:28;2.13;;;0.98;;
9370;SDS011;4725;48.384;8.984;2022-09-21T13:33:02;0.80;;;0.80;;
9370;SDS011;4725;48.384;8.984;2022-09-21T13:35:52;1.55;;;1.00;;
9370;SDS011;4725;48.384;8.984;2022-09-21T13:38:26;2.20;;;1.10;;
9370;SDS011;4725;48.384;8.984;2022-09-21T13:40:56;2.55;;;1.20;;
9370;SDS011;4725;48.384;8.984;2022-09-21T13:52:27;1.95;;;1.13;;
9370;SDS011;4725;48.384;8.984;2022-09-21T13:54:59;1.10;;;1.00;;
9370;SDS011;4725;48.384;8.984;2022-09-21T13:57:29;1.67;;;1.10;;
9370;SDS011;4725;48.384;8.984;2022-09-21T14:00:22;0.98;;;0.90;;
9370;SDS011;4725;48.384;8.984;2022-09-21T14:02:56;1.25;;;1.15;;
9370;SDS011;4725;48.384;8.984;2022-09-21T14:05:29;1.48;;;0.88;;
9370;SDS011;4725;48.384;8.984;2022-09-21T14:08:01;2.40;;;1.10;;
9370;SDS011;4725;48.384;8.984;2022-09-21T14:10:31;0.90;;;0.90;;
9370;SDS011;4725;48.384;8.984;2022-09-21T14:13:00;1.58;;;1.10;;
9370;SDS011;4725;48.384;8.984;2022-09-21T14:18:08;1.48;;;1.20;;
9370;SDS011;4725;48.384;8.984;2022-09-21T14:23:42;1.55;;;1.20;;
9370;SDS011;4725;48.384;8.984;2022-09-21T14:27:04;1.95;;;0.80;;
9370;SDS011;4725;48.384;8.984;2022-09-21T14:29:43;0.82;;;0.82;;
9370;SDS011;4725;48.384;8.984;2022-09-21T14:32:14;1.48;;;1.05;;
9370;SDS011;4725;48.384;8.984;2022-09-21T14:34:47;1.20;;;1.10;;
9370;SDS011;4725;48.384;8.984;2022-09-21T14:37:20;1.08;;;1.00;;
9370;SDS011;4725;48.384;8.984;2022-09-21T14:39:53;1.13;;;1.00;;
9370;SDS011;4725;48.384;8.984;2022-09-21T14:42:24;1.83;;;1.13;;
9370;SDS011;4725;48.384;8.984;2022-09-21T14:44:55;1.27;;;1.13;;
9370;SDS011;4725;48.384;8.984;2022-09-21T14:47:29;0.90;;;0.90;;
9370;SDS011;4725;48.384;8.984;2022-09-21T14:56:02;1.80;;;1.20;;
9370;SDS011;4725;48.384;8.984;2022-09-21T14:59:00;0.98;;;0.98;;
9370;SDS011;4725;48.384;8.984;2022-09-21T15:01:37;1.65;;;1.08;;
9370;SDS011;4725;48.384;8.984;2022-09-21T15:06:59;1.17;;;1.02;;
9370;SDS011;4725;48.384;8.984;2022-09-21T15:10:01;2.65;;;1.30;;
9370;SDS011;4725;48.384;8.984;2022-09-21T15:12:59;1.27;;;1.10;;
9370;SDS011;4725;48.384;8.984;2022-09-21T15:15:35;1.55;;;1.00;;
9370;SDS011;4725;48.384;8.984;2022-09-21T15:18:13;1.33;;;0.90;;
9370;SDS011;4725;48.384;8.984;2022-09-21T15:20:49;1.00;;;1.00;;
9370;SDS011;4725;48.384;8.984;2022-09-21T15:23:24;1.27;;;1.17;;
9370;SDS011;4725;48.384;8.984;2022-09-21T15:25:52;1.63;;;1.00;;
9370;SDS011;4725;48.384;8.984;2022-09-21T15:28:24;1.90;;;1.20;;
9370;SDS011;4725;48.384;8.984;2022-09-21T15:31:01;2.15;;;1.23;;
9370;SDS011;4725;48.384;8.984;2022-09-21T15:33:30;1.15;;;1.05;;
9370;SDS011;4725;48.384;8.984;2022-09-21T15:36:01;1.02;;;1.00;;
9370;SDS011;4725;48.384;8.984;2022-09-21T15:38:30;3.33;;;1.00;;
9370;SDS011;4725;48.384;8.984;2022-09-21T15:40:59;1.55;;;1.30;;
9370;SDS011;4725;48.384;8.984;2022-09-21T15:43:27;1.40;;;1.05;;
9370;SDS011;4725;48.384;8.984;2022-09-21T15:45:55;1.27;;;1.17;;
9370;SDS011;4725;48.384;8.984;2022-09-21T15:48:28;0.90;;;0.90;;
9370;SDS011;4725;48.384;8.984;2022-09-21T15:50:58;1.38;;;1.27;;
9370;SDS011;4725;48.384;8.984;2022-09-21T15:53:29;1.20;;;1.10;;
9370;SDS011;4725;48.384;8.984;2022-09-21T15:56:01;1.73;;;1.63;;
9370;SDS011;4725;48.384;8.984;2022-09-21T15:58:29;2.88;;;2.00;;
9370;SDS011;4725;48.384;8.984;2022-09-21T16:01:00;2.55;;;1.90;;
9370;SDS011;4725;48.384;8.984;2022-09-21T16:03:28;2.67;;;1.73;;
9370;SDS011;4725;48.384;8.984;2022-09-21T16:05:56;3.15;;;1.48;;
9370;SDS011;4725;48.384;8.984;2022-09-21T16:08:27;4.47;;;1.17;;
9370;SDS011;4725;48.384;8.984;2022-09-21T16:11:09;2.67;;;1.45;;
9370;SDS011;4725;48.384;8.984;2022-09-21T16:13:39;1.02;;;1.00;;
9370;SDS011;4725;48.384;8.984;2022-09-21T16:16:24;2.03;;;1.20;;
9370;SDS011;4725;48.384;8.984;2022-09-21T16:18:53;1.30;;;1.10;;
9370;SDS011;4725;48.384;8.984;2022-09-21T16:21:24;1.63;;;1.10;;
9370;SDS011;4725;48.384;8.984;2022-09-21T16:23:54;1.85;;;1.40;;